createdAt,value
2017-12-04T00:00:43.177Z,12.83
2017-12-04T00:03:09.477Z,12.89
2017-12-04T00:05:35.868Z,12.95
2017-12-04T00:08:02.316Z,13.01
2017-12-04T00:10:28.720Z,13.09
2017-12-04T00:12:55.141Z,13.05
2017-12-04T00:15:21.572Z,13.04
2017-12-04T00:17:47.957Z,12.95
2017-12-04T00:20:14.358Z,12.89
2017-12-04T00:22:40.833Z,12.82
2017-12-04T00:25:07.244Z,12.71
2017-12-04T00:27:33.648Z,12.62
2017-12-04T00:30:00.012Z,12.57
2017-12-04T00:32:26.380Z,12.56
2017-12-04T00:34:52.731Z,12.54
2017-12-04T00:37:19.116Z,12.56
2017-12-04T00:39:45.592Z,12.59
2017-12-04T00:42:11.940Z,12.62
2017-12-04T00:44:38.459Z,12.56
2017-12-04T00:47:04.892Z,12.50
2017-12-04T00:49:31.284Z,12.51
2017-12-04T00:51:57.681Z,12.52
2017-12-04T00:54:24.019Z,12.44
2017-12-04T00:56:50.361Z,12.32
2017-12-04T00:59:16.784Z,12.25
2017-12-04T01:01:43.132Z,12.27
2017-12-04T01:04:09.510Z,12.33
2017-12-04T01:06:35.924Z,12.37
2017-12-04T01:09:02.408Z,12.26
2017-12-04T01:11:28.792Z,12.23
2017-12-04T01:13:55.224Z,12.31
2017-12-04T01:16:21.579Z,12.33
2017-12-04T01:18:47.928Z,12.30
2017-12-04T01:21:14.371Z,12.20
2017-12-04T01:23:40.717Z,12.16
2017-12-04T01:26:07.084Z,12.10
2017-12-04T01:28:33.518Z,12.02
2017-12-04T01:30:59.868Z,12.07
2017-12-04T01:33:26.408Z,12.13
2017-12-04T01:35:52.815Z,12.14
2017-12-04T01:38:19.176Z,12.13
2017-12-04T01:40:45.610Z,12.03
2017-12-04T01:43:12.059Z,11.90
2017-12-04T01:45:38.472Z,11.82
2017-12-04T01:48:04.844Z,11.77
2017-12-04T01:50:31.341Z,11.73
2017-12-04T01:52:57.740Z,11.67
2017-12-04T01:55:24.104Z,11.75
2017-12-04T01:57:50.543Z,11.78
2017-12-04T02:00:16.949Z,11.75
2017-12-04T02:02:43.460Z,11.65
2017-12-04T02:05:09.888Z,11.60
2017-12-04T02:07:36.310Z,11.58
2017-12-04T02:10:02.780Z,11.64
2017-12-04T02:12:29.219Z,11.62
2017-12-04T02:14:55.561Z,11.54
2017-12-04T02:17:21.925Z,11.54
2017-12-04T02:19:48.304Z,11.53
2017-12-04T02:22:14.748Z,11.51
2017-12-04T02:24:41.306Z,11.52
2017-12-04T02:27:07.817Z,11.51
2017-12-04T02:29:34.235Z,11.58
2017-12-04T02:32:00.711Z,11.61
2017-12-04T02:34:27.124Z,11.62
2017-12-04T02:36:53.580Z,11.68
2017-12-04T02:39:19.925Z,11.66
2017-12-04T02:41:46.420Z,11.58
2017-12-04T02:44:12.848Z,11.55
2017-12-04T02:46:39.293Z,11.46
2017-12-04T02:49:05.760Z,11.36
2017-12-04T02:51:32.174Z,11.37
2017-12-04T02:53:58.616Z,11.41
2017-12-04T02:56:25.191Z,11.58
2017-12-04T02:58:51.783Z,11.57
2017-12-04T03:01:18.228Z,11.59
2017-12-04T03:03:44.680Z,11.58
2017-12-04T03:06:11.028Z,11.52
2017-12-04T03:08:37.393Z,11.50
2017-12-04T03:11:03.785Z,11.47
2017-12-04T03:13:30.158Z,11.45
2017-12-04T03:15:56.560Z,11.50
2017-12-04T03:18:23.021Z,11.56
2017-12-04T03:20:49.448Z,11.60
2017-12-04T03:23:15.896Z,11.66
2017-12-04T03:25:42.448Z,11.82
2017-12-04T03:28:08.911Z,11.79
2017-12-04T03:30:35.350Z,11.73
2017-12-04T03:33:01.952Z,11.71
2017-12-04T03:35:28.364Z,11.66
2017-12-04T03:37:54.780Z,11.58
2017-12-04T03:40:21.248Z,11.58
2017-12-04T03:42:47.608Z,11.66
2017-12-04T03:45:14.005Z,11.76
2017-12-04T03:47:40.479Z,11.66
2017-12-04T03:50:06.828Z,11.48
2017-12-04T03:52:33.189Z,11.31
2017-12-04T03:54:59.572Z,11.44
2017-12-04T03:57:25.908Z,11.57
2017-12-04T03:59:52.297Z,11.67
2017-12-04T04:02:18.744Z,11.74
2017-12-04T04:04:45.075Z,11.78
2017-12-04T04:07:11.428Z,11.79
2017-12-04T04:09:37.951Z,11.77
2017-12-04T04:12:04.325Z,11.78
2017-12-04T04:14:30.672Z,11.89
2017-12-04T04:16:57.139Z,11.93
2017-12-04T04:19:23.492Z,11.92
2017-12-04T04:21:49.839Z,11.89
2017-12-04T04:24:16.293Z,11.90
2017-12-04T04:26:42.643Z,11.85
2017-12-04T04:29:08.983Z,11.76
2017-12-04T04:31:35.369Z,11.70
2017-12-04T04:34:01.759Z,11.69
2017-12-04T04:36:28.113Z,11.75
2017-12-04T04:38:54.496Z,11.83
2017-12-04T04:41:20.901Z,11.73
2017-12-04T04:43:47.293Z,11.69
2017-12-04T04:46:13.828Z,11.69
2017-12-04T04:48:40.208Z,11.51
2017-12-04T04:51:06.669Z,11.47
2017-12-04T04:53:33.229Z,11.44
2017-12-04T04:55:59.663Z,11.37
2017-12-04T04:58:26.056Z,11.31
2017-12-04T05:00:52.461Z,11.27
2017-12-04T05:03:18.897Z,11.28
2017-12-04T05:05:45.325Z,11.32
2017-12-04T05:08:11.934Z,11.24
2017-12-04T05:10:38.340Z,11.06
2017-12-04T05:13:04.800Z,10.97
2017-12-04T05:15:31.256Z,10.96
2017-12-04T05:17:57.643Z,10.95
2017-12-04T05:20:24.116Z,10.97
2017-12-04T05:22:50.636Z,11.03
2017-12-04T05:25:17.000Z,11.06
2017-12-04T05:27:43.503Z,11.01
2017-12-04T05:30:09.905Z,11.02
2017-12-04T05:32:36.284Z,11.11
2017-12-04T05:35:02.872Z,11.19
2017-12-04T05:37:29.370Z,11.28
2017-12-04T05:39:55.713Z,11.27
2017-12-04T05:42:22.102Z,11.26
2017-12-04T05:44:48.512Z,11.17
2017-12-04T05:47:15.079Z,11.08
2017-12-04T05:49:41.483Z,11.00
2017-12-04T05:52:07.920Z,11.10
2017-12-04T05:54:34.269Z,11.09
2017-12-04T05:57:00.710Z,11.10
2017-12-04T05:59:27.084Z,11.17
2017-12-04T06:01:53.483Z,11.16
2017-12-04T06:04:19.816Z,11.17
2017-12-04T06:06:46.232Z,11.22
2017-12-04T06:09:12.580Z,11.17
2017-12-04T06:11:39.034Z,11.22
2017-12-04T06:14:05.556Z,11.24
2017-12-04T06:16:31.960Z,11.17
2017-12-04T06:18:58.436Z,11.18
2017-12-04T06:21:24.897Z,11.21
2017-12-04T06:23:51.248Z,11.30
2017-12-04T06:26:17.600Z,11.45
2017-12-04T06:28:44.093Z,11.71
2017-12-04T06:31:10.493Z,11.79
2017-12-04T06:33:36.913Z,11.92
2017-12-04T06:36:03.389Z,12.00
2017-12-04T06:38:30.034Z,11.92
2017-12-04T06:40:56.488Z,11.74
2017-12-04T06:43:22.884Z,11.77
2017-12-04T06:45:49.231Z,11.89
2017-12-04T06:48:15.676Z,11.88
2017-12-04T06:50:42.100Z,11.70
2017-12-04T06:53:08.522Z,11.40
2017-12-04T06:55:34.924Z,11.25
2017-12-04T06:58:01.437Z,11.16
2017-12-04T07:00:27.826Z,11.16
2017-12-04T07:02:54.232Z,11.01
2017-12-04T07:05:21.970Z,10.79
2017-12-04T07:07:48.496Z,10.96
2017-12-04T07:10:14.840Z,10.95
2017-12-04T07:12:41.371Z,11.01
2017-12-04T07:15:07.738Z,10.90
2017-12-04T07:17:35.057Z,10.97
2017-12-04T07:20:01.933Z,10.88
2017-12-04T07:22:28.336Z,10.89
2017-12-04T07:24:54.689Z,10.94
2017-12-04T07:27:21.197Z,10.95
2017-12-04T07:29:47.633Z,10.85
2017-12-04T07:32:14.012Z,10.98
2017-12-04T07:34:40.396Z,10.96
2017-12-04T07:37:06.727Z,10.67
2017-12-04T07:39:33.132Z,10.75
2017-12-04T07:41:59.568Z,10.90
2017-12-04T07:44:25.935Z,10.83
2017-12-04T07:46:52.293Z,10.84
2017-12-04T07:49:18.713Z,11.07
2017-12-04T07:51:45.049Z,11.15
2017-12-04T07:54:11.416Z,11.32
2017-12-04T07:56:37.792Z,11.44
2017-12-04T07:59:04.218Z,11.53
2017-12-04T08:01:30.568Z,11.46
2017-12-04T08:03:57.083Z,11.50
2017-12-04T08:06:23.464Z,11.62
2017-12-04T08:08:49.824Z,11.62
2017-12-04T08:11:16.241Z,11.69
2017-12-04T08:13:42.611Z,11.74
2017-12-04T08:16:08.980Z,11.45
2017-12-04T08:18:35.410Z,11.56
2017-12-04T08:21:01.913Z,11.61
2017-12-04T08:23:28.351Z,11.53
2017-12-04T08:25:54.796Z,11.68
2017-12-04T08:28:21.213Z,11.49
2017-12-04T08:30:48.118Z,11.56
2017-12-04T08:33:14.585Z,11.86
2017-12-04T08:35:41.025Z,11.95
2017-12-04T08:38:07.371Z,11.93
2017-12-04T08:40:33.788Z,12.02
2017-12-04T08:43:00.201Z,11.95
2017-12-04T08:45:26.597Z,11.90
2017-12-04T08:47:53.012Z,12.08
2017-12-04T08:50:19.357Z,12.35
2017-12-04T08:52:45.705Z,12.36
2017-12-04T08:55:12.120Z,12.20
2017-12-04T08:57:38.470Z,12.30
2017-12-04T09:00:04.828Z,12.38
2017-12-04T09:02:31.278Z,12.39
2017-12-04T09:04:57.648Z,12.52
2017-12-04T09:07:24.032Z,12.63
2017-12-04T09:09:50.670Z,12.67
2017-12-04T09:12:17.044Z,12.66
2017-12-04T09:14:43.476Z,12.44
2017-12-04T09:17:09.903Z,11.98
2017-12-04T09:19:36.292Z,11.97
2017-12-04T09:22:02.707Z,11.91
2017-12-04T09:24:29.123Z,11.97
2017-12-04T09:26:55.579Z,11.85
2017-12-04T09:29:22.128Z,11.86
2017-12-04T09:31:48.602Z,11.78
2017-12-04T09:34:15.014Z,11.76
2017-12-04T09:36:41.551Z,11.91
2017-12-04T09:39:07.969Z,12.18
2017-12-04T09:41:34.369Z,12.49
2017-12-04T09:44:00.788Z,12.34
2017-12-04T09:46:27.232Z,12.38
2017-12-04T09:48:53.700Z,12.30
2017-12-04T09:51:20.292Z,12.10
2017-12-04T09:53:46.720Z,12.10
2017-12-04T09:56:13.144Z,11.96
2017-12-04T09:58:39.549Z,11.89
2017-12-04T10:01:06.015Z,11.98
2017-12-04T10:03:32.460Z,12.08
2017-12-04T10:05:58.837Z,12.20
2017-12-04T10:08:25.268Z,12.22
2017-12-04T10:10:51.668Z,12.32
2017-12-04T10:13:18.089Z,12.39
2017-12-04T10:15:44.540Z,12.15
2017-12-04T10:18:10.919Z,12.00
2017-12-04T10:20:37.323Z,11.93
2017-12-04T10:23:03.744Z,11.92
2017-12-04T10:25:30.150Z,11.90
2017-12-04T10:27:56.553Z,11.97
2017-12-04T10:30:23.088Z,12.12
2017-12-04T10:32:49.506Z,12.27
2017-12-04T10:35:16.161Z,12.33
2017-12-04T10:37:42.862Z,11.64
2017-12-04T10:40:09.368Z,11.75
2017-12-04T10:42:35.789Z,11.78
2017-12-04T10:45:02.262Z,11.83
2017-12-04T10:47:28.694Z,11.72
2017-12-04T10:49:55.127Z,11.75
2017-12-04T10:52:21.656Z,11.87
2017-12-04T10:54:48.064Z,11.96
2017-12-04T10:57:14.499Z,11.76
2017-12-04T10:59:41.003Z,11.88
2017-12-04T11:02:07.464Z,11.98
2017-12-04T11:04:33.972Z,11.64
2017-12-04T11:07:00.464Z,11.68
2017-12-04T11:09:26.876Z,11.82
2017-12-04T11:11:53.295Z,11.92
2017-12-04T11:14:20.646Z,11.96
2017-12-04T11:16:47.028Z,11.98
2017-12-04T11:19:13.393Z,11.94
2017-12-04T11:21:39.888Z,11.90
2017-12-04T11:24:06.356Z,11.95
2017-12-04T11:26:32.816Z,11.93
2017-12-04T11:28:59.228Z,11.91
2017-12-04T11:31:25.661Z,11.87
2017-12-04T11:33:52.117Z,11.70
2017-12-04T11:36:18.597Z,11.60
2017-12-04T11:38:45.234Z,11.34
2017-12-04T11:41:11.668Z,11.28
2017-12-04T11:43:38.136Z,11.36
2017-12-04T11:46:04.543Z,11.42
2017-12-04T11:48:30.988Z,11.66
2017-12-04T11:50:57.464Z,11.88
2017-12-04T11:53:23.844Z,12.01
2017-12-04T11:55:50.272Z,11.99
2017-12-04T11:58:16.745Z,11.91
2017-12-04T12:00:43.138Z,11.94
2017-12-04T12:03:09.517Z,11.86
2017-12-04T12:05:35.932Z,11.70
2017-12-04T12:08:02.284Z,11.78
2017-12-04T12:10:28.664Z,11.75
2017-12-04T12:12:55.259Z,11.75
2017-12-04T12:15:21.870Z,11.53
2017-12-04T12:17:48.242Z,11.53
2017-12-04T12:20:14.626Z,11.48
2017-12-04T12:22:41.000Z,11.54
2017-12-04T12:25:08.523Z,11.75
2017-12-04T12:27:35.502Z,11.72
2017-12-04T12:30:01.873Z,11.71
2017-12-04T12:32:28.264Z,11.76
2017-12-04T12:34:54.745Z,11.73
2017-12-04T12:37:21.088Z,11.85
2017-12-04T12:39:47.481Z,11.82
2017-12-04T12:42:13.884Z,11.78
2017-12-04T12:44:40.300Z,11.79
2017-12-04T12:47:06.710Z,11.47
2017-12-04T12:49:33.124Z,11.34
2017-12-04T12:51:59.634Z,11.36
2017-12-04T12:54:26.000Z,11.50
2017-12-04T12:56:52.436Z,11.55
2017-12-04T12:59:18.816Z,11.60
2017-12-04T13:01:45.192Z,11.44
2017-12-04T13:04:11.586Z,11.44
2017-12-04T13:06:37.930Z,11.62
2017-12-04T13:09:04.452Z,11.59
2017-12-04T13:11:30.892Z,11.74
2017-12-04T13:13:57.416Z,11.60
2017-12-04T13:16:23.771Z,11.68
2017-12-04T13:18:50.181Z,11.55
2017-12-04T13:21:16.528Z,11.67
2017-12-04T13:23:43.134Z,11.70
2017-12-04T13:26:09.573Z,11.72
2017-12-04T13:28:35.924Z,11.78
2017-12-04T13:31:02.468Z,11.80
2017-12-04T13:33:41.364Z,11.86
2017-12-04T13:36:19.964Z,11.85
2017-12-04T13:38:46.412Z,11.88
2017-12-04T13:41:12.761Z,11.94
2017-12-04T13:43:39.113Z,11.88
2017-12-04T13:46:05.540Z,11.78
2017-12-04T13:48:31.917Z,11.69
2017-12-04T13:50:58.348Z,11.66
2017-12-04T13:53:24.756Z,11.64
2017-12-04T13:55:51.296Z,11.77
2017-12-04T13:58:17.777Z,11.79
2017-12-04T14:00:44.204Z,11.88
2017-12-04T14:03:10.621Z,11.96
2017-12-04T14:05:36.956Z,11.98
2017-12-04T14:08:03.383Z,11.77
2017-12-04T14:10:29.738Z,11.76
2017-12-04T14:12:56.173Z,11.72
2017-12-04T14:15:22.731Z,11.59
2017-12-04T14:17:49.448Z,11.63
2017-12-04T14:20:15.850Z,11.48
2017-12-04T14:22:42.429Z,11.25
2017-12-04T14:25:13.822Z,11.58
2017-12-04T14:27:41.019Z,11.71
2017-12-04T14:30:07.404Z,11.84
2017-12-04T14:32:33.811Z,11.53
2017-12-04T14:35:00.339Z,11.47
2017-12-04T14:37:26.726Z,11.58
2017-12-04T14:39:53.121Z,11.74
2017-12-04T14:42:19.517Z,11.73
2017-12-04T14:44:45.924Z,11.61
2017-12-04T14:47:13.076Z,11.76
2017-12-04T14:49:39.512Z,11.81
2017-12-04T14:52:06.035Z,11.77
2017-12-04T14:54:32.708Z,11.58
2017-12-04T14:56:59.216Z,11.33
2017-12-04T14:59:25.796Z,11.40
2017-12-04T15:01:52.489Z,11.29
2017-12-04T15:04:19.040Z,11.31
2017-12-04T15:06:45.541Z,11.37
2017-12-04T15:09:12.028Z,11.32
2017-12-04T15:11:38.679Z,11.11
2017-12-04T15:14:05.285Z,11.13
2017-12-04T15:16:31.728Z,10.98
2017-12-04T15:18:58.148Z,11.09
2017-12-04T15:21:24.614Z,11.26
2017-12-04T15:23:51.164Z,11.36
2017-12-04T15:26:17.916Z,11.28
2017-12-04T15:28:44.389Z,11.31
2017-12-04T15:31:10.851Z,11.40
2017-12-04T15:33:37.382Z,11.35
2017-12-04T15:36:03.963Z,11.49
2017-12-04T15:38:30.428Z,11.55
2017-12-04T15:40:56.966Z,11.60
2017-12-04T15:43:23.576Z,11.61
2017-12-04T15:45:50.035Z,11.58
2017-12-04T15:48:16.597Z,11.54
2017-12-04T15:50:43.144Z,11.54
2017-12-04T15:53:09.874Z,11.20
2017-12-04T15:55:36.309Z,10.62
2017-12-04T15:58:02.792Z,10.92
2017-12-04T16:00:29.216Z,11.05
2017-12-04T16:02:55.661Z,11.11
2017-12-04T16:05:22.161Z,11.16
2017-12-04T16:07:49.322Z,11.13
2017-12-04T16:10:15.764Z,11.14
2017-12-04T16:12:42.219Z,11.16
2017-12-04T16:15:08.640Z,11.22
2017-12-04T16:17:35.033Z,11.02
2017-12-04T16:20:02.033Z,11.14
2017-12-04T16:22:28.492Z,11.29
2017-12-04T16:24:54.879Z,10.54
2017-12-04T16:27:21.965Z,10.38
2017-12-04T16:29:48.368Z,9.81
2017-12-04T16:32:14.785Z,10.19
2017-12-04T16:34:41.290Z,10.38
2017-12-04T16:37:07.700Z,10.09
2017-12-04T16:39:34.112Z,10.33
2017-12-04T16:42:00.566Z,10.50
2017-12-04T16:44:27.023Z,10.56
2017-12-04T16:46:53.560Z,10.69
2017-12-04T16:49:20.123Z,10.73
2017-12-04T16:51:46.526Z,10.60
2017-12-04T16:54:12.941Z,10.66
2017-12-04T16:56:39.387Z,10.70
2017-12-04T16:59:05.808Z,10.53
2017-12-04T17:01:32.276Z,10.56
2017-12-04T17:03:58.757Z,10.56
2017-12-04T17:06:25.209Z,10.37
2017-12-04T17:08:51.600Z,10.35
2017-12-04T17:11:18.017Z,10.32
2017-12-04T17:13:44.406Z,10.20
2017-12-04T17:16:10.801Z,9.95
2017-12-04T17:18:37.209Z,9.88
2017-12-04T17:21:03.613Z,9.60
2017-12-04T17:23:30.016Z,9.87
2017-12-04T17:25:56.450Z,9.80
2017-12-04T17:28:23.107Z,9.50
2017-12-04T17:30:49.497Z,9.31
2017-12-04T17:33:16.049Z,9.71
2017-12-04T17:35:42.431Z,9.86
2017-12-04T17:38:08.850Z,9.74
2017-12-04T17:40:35.325Z,9.76
2017-12-04T17:43:01.705Z,10.09
2017-12-04T17:45:28.096Z,10.00
2017-12-04T17:47:54.561Z,9.61
2017-12-04T17:50:21.210Z,9.58
2017-12-04T17:52:47.596Z,9.72
2017-12-04T17:55:14.109Z,10.01
2017-12-04T17:57:40.508Z,9.69
2017-12-04T18:00:06.899Z,9.61
2017-12-04T18:02:33.328Z,9.20
2017-12-04T18:04:59.808Z,9.35
2017-12-04T18:07:26.256Z,9.57
2017-12-04T18:09:52.727Z,9.00
2017-12-04T18:12:19.146Z,9.20
2017-12-04T18:14:45.553Z,9.26
2017-12-04T18:17:12.032Z,9.51
2017-12-04T18:19:38.538Z,9.69
2017-12-04T18:22:05.072Z,9.53
2017-12-04T18:24:31.537Z,9.60
2017-12-04T18:26:57.985Z,9.43
2017-12-04T18:29:24.444Z,9.20
2017-12-04T18:31:50.933Z,9.28
2017-12-04T18:34:17.380Z,9.39
2017-12-04T18:36:43.833Z,9.11
2017-12-04T18:39:11.056Z,9.22
2017-12-04T18:41:37.512Z,9.07
2017-12-04T18:44:03.956Z,9.32
2017-12-04T18:46:30.424Z,9.50
2017-12-04T18:48:56.946Z,9.24
2017-12-04T18:51:23.604Z,9.17
2017-12-04T18:53:50.073Z,9.22
2017-12-04T18:56:16.556Z,9.54
2017-12-04T18:58:42.988Z,9.66
2017-12-04T19:01:09.509Z,9.43
2017-12-04T19:03:35.952Z,8.88
2017-12-04T19:06:02.398Z,9.33
2017-12-04T19:08:28.911Z,9.44
2017-12-04T19:10:55.353Z,9.27
2017-12-04T19:13:21.769Z,8.69
2017-12-04T19:15:48.239Z,8.72
2017-12-04T19:18:14.712Z,9.01
2017-12-04T19:20:41.153Z,9.35
2017-12-04T19:23:07.672Z,9.51
2017-12-04T19:25:34.121Z,9.41
2017-12-04T19:28:00.546Z,8.73
2017-12-04T19:30:27.025Z,8.69
2017-12-04T19:32:53.502Z,8.68
2017-12-04T19:35:20.470Z,9.05
2017-12-04T19:37:47.274Z,9.44
2017-12-04T19:40:13.741Z,9.20
2017-12-04T19:42:40.220Z,8.70
2017-12-04T19:45:06.709Z,8.74
2017-12-04T19:47:33.160Z,8.34
2017-12-04T19:49:59.613Z,7.83
2017-12-04T19:52:26.157Z,8.31
2017-12-04T19:54:52.593Z,8.66
2017-12-04T19:57:19.149Z,8.62
2017-12-04T19:59:45.612Z,8.78
2017-12-04T20:02:12.151Z,8.70
2017-12-04T20:04:38.601Z,8.76
2017-12-04T20:07:05.073Z,8.18
2017-12-04T20:09:31.490Z,8.37
2017-12-04T20:11:57.905Z,8.61
2017-12-04T20:14:24.388Z,8.02
2017-12-04T20:16:50.922Z,8.18
2017-12-04T20:19:17.441Z,8.19
2017-12-04T20:21:43.965Z,8.16
2017-12-04T20:24:10.452Z,7.69
2017-12-04T20:26:36.945Z,7.55
2017-12-04T20:29:03.473Z,7.87
2017-12-04T20:31:29.948Z,7.80
2017-12-04T20:33:56.345Z,7.91
2017-12-04T20:36:22.816Z,7.66
2017-12-04T20:38:49.253Z,7.67
2017-12-04T20:41:15.700Z,7.54
2017-12-04T20:43:42.185Z,7.28
2017-12-04T20:46:08.960Z,7.22
2017-12-04T20:48:35.382Z,7.18
2017-12-04T20:51:01.876Z,7.48
2017-12-04T20:53:28.338Z,7.27
2017-12-04T20:55:54.882Z,7.43
2017-12-04T20:58:21.394Z,7.40
2017-12-04T21:00:48.029Z,7.07
2017-12-04T21:03:14.476Z,7.11
2017-12-04T21:05:40.947Z,6.91
2017-12-04T21:08:19.396Z,7.10
2017-12-04T21:10:58.106Z,7.08
2017-12-04T21:13:36.539Z,6.96
2017-12-04T21:16:25.712Z,6.62
2017-12-04T21:18:52.275Z,6.59
2017-12-04T21:21:18.685Z,6.26
2017-12-04T21:23:45.164Z,6.19
2017-12-04T21:26:11.600Z,6.13
2017-12-04T21:28:38.051Z,6.18
2017-12-04T21:31:04.516Z,6.17
2017-12-04T21:33:30.957Z,6.31
2017-12-04T21:35:57.512Z,6.85
2017-12-04T21:38:24.004Z,6.80
2017-12-04T21:40:50.456Z,6.58
2017-12-04T21:43:16.884Z,6.51
2017-12-04T21:45:43.346Z,6.21
2017-12-04T21:48:09.781Z,6.12
2017-12-04T21:50:36.187Z,5.92
2017-12-04T21:53:02.648Z,5.95
2017-12-04T21:55:29.108Z,5.99
2017-12-04T21:57:55.547Z,6.36
2017-12-04T22:00:22.050Z,6.65
2017-12-04T22:02:48.483Z,6.58
2017-12-04T22:05:14.932Z,6.68
2017-12-04T22:07:41.454Z,6.91
2017-12-04T22:10:07.880Z,7.23
2017-12-04T22:12:34.315Z,6.79
2017-12-04T22:15:00.788Z,6.64
2017-12-04T22:17:27.236Z,6.43
2017-12-04T22:19:53.679Z,6.73
2017-12-04T22:22:20.128Z,6.40
2017-12-04T22:24:46.564Z,6.42
2017-12-04T22:27:12.989Z,6.17
2017-12-04T22:29:39.633Z,6.38
2017-12-04T22:32:06.096Z,6.34
2017-12-04T22:34:32.552Z,6.20
2017-12-04T22:36:59.015Z,6.15
2017-12-04T22:39:25.477Z,5.96
2017-12-04T22:41:51.932Z,5.99
2017-12-04T22:44:18.420Z,6.01
2017-12-04T22:46:44.870Z,6.03
2017-12-04T22:49:11.306Z,5.95
2017-12-04T22:51:37.772Z,5.91
2017-12-04T22:54:04.260Z,5.63
2017-12-04T22:56:30.711Z,5.37
2017-12-04T22:58:57.245Z,5.36
2017-12-04T23:01:23.657Z,5.22
2017-12-04T23:03:50.108Z,5.62
2017-12-04T23:06:16.623Z,5.68
2017-12-04T23:08:43.056Z,5.59
2017-12-04T23:11:09.641Z,5.72
2017-12-04T23:13:36.176Z,5.63
2017-12-04T23:16:02.660Z,5.62
2017-12-04T23:18:29.121Z,5.30
2017-12-04T23:20:55.650Z,5.60
2017-12-04T23:23:22.089Z,5.80
2017-12-04T23:25:48.532Z,6.05
2017-12-04T23:28:14.995Z,5.98
2017-12-04T23:30:41.538Z,5.73
2017-12-04T23:33:08.028Z,5.41
2017-12-04T23:35:34.528Z,5.41
2017-12-04T23:38:00.952Z,5.98
2017-12-04T23:40:27.372Z,5.65
2017-12-04T23:42:53.759Z,5.67
2017-12-04T23:45:20.100Z,5.39
2017-12-04T23:47:46.464Z,5.71
2017-12-04T23:50:12.875Z,5.55
2017-12-04T23:52:39.248Z,5.31
2017-12-04T23:55:05.621Z,5.45
2017-12-04T23:57:32.031Z,5.55
2017-12-04T23:59:58.415Z,5.88
